sensor_id;sensor_type;location;lat;lon;timestamp;temperature;humidity
38333;DHT22;25748;46.670;14.272;2023-02-28T00:00:43;-0.40;53.10
38333;DHT22;25748;46.670;14.272;2023-02-28T00:03:09;-0.40;53.20
38333;DHT22;25748;46.670;14.272;2023-02-28T00:05:35;-0.40;53.20
38333;DHT22;25748;46.670;14.272;2023-02-28T00:08:01;-0.40;53.30
38333;DHT22;25748;46.670;14.272;2023-02-28T00:10:29;-0.40;53.20
38333;DHT22;25748;46.670;14.272;2023-02-28T00:12:58;-0.40;53.20
38333;DHT22;25748;46.670;14.272;2023-02-28T00:15:24;-0.40;53.20
38333;DHT22;25748;46.670;14.272;2023-02-28T00:17:50;-0.40;53.00
38333;DHT22;25748;46.670;14.272;2023-02-28T00:20:16;-0.40;53.20
38333;DHT22;25748;46.670;14.272;2023-02-28T00:22:45;-0.40;53.00
38333;DHT22;25748;46.670;14.272;2023-02-28T00:25:12;-0.40;53.10
38333;DHT22;25748;46.670;14.272;2023-02-28T00:27:39;-0.40;52.90
38333;DHT22;25748;46.670;14.272;2023-02-28T00:30:07;-0.40;52.70
38333;DHT22;25748;46.670;14.272;2023-02-28T00:32:33;-0.40;52.90
38333;DHT22;25748;46.670;14.272;2023-02-28T00:35:00;-0.40;52.80
38333;DHT22;25748;46.670;14.272;2023-02-28T00:37:25;-0.40;52.90
38333;DHT22;25748;46.670;14.272;2023-02-28T00:39:51;-0.40;52.80
38333;DHT22;25748;46.670;14.272;2023-02-28T00:42:17;-0.40;52.70
38333;DHT22;25748;46.670;14.272;2023-02-28T00:44:43;-0.40;52.80
38333;DHT22;25748;46.670;14.272;2023-02-28T00:47:08;-0.30;52.70
38333;DHT22;25748;46.670;14.272;2023-02-28T00:49:34;-0.30;52.50
38333;DHT22;25748;46.670;14.272;2023-02-28T00:52:00;-0.30;52.50
38333;DHT22;25748;46.670;14.272;2023-02-28T00:54:25;-0.30;52.60
38333;DHT22;25748;46.670;14.272;2023-02-28T00:56:51;-0.30;52.60
38333;DHT22;25748;46.670;14.272;2023-02-28T00:59:18;-0.40;52.60
38333;DHT22;25748;46.670;14.272;2023-02-28T01:01:45;-0.30;52.60
38333;DHT22;25748;46.670;14.272;2023-02-28T01:04:11;-0.30;52.70
38333;DHT22;25748;46.670;14.272;2023-02-28T01:06:37;-0.40;52.70
38333;DHT22;25748;46.670;14.272;2023-02-28T01:09:05;-0.40;52.60
38333;DHT22;25748;46.670;14.272;2023-02-28T01:11:31;-0.40;52.60
38333;DHT22;25748;46.670;14.272;2023-02-28T01:13:57;-0.40;52.60
38333;DHT22;25748;46.670;14.272;2023-02-28T01:16:23;-0.40;52.60
38333;DHT22;25748;46.670;14.272;2023-02-28T01:18:49;-0.40;52.60
38333;DHT22;25748;46.670;14.272;2023-02-28T01:21:17;-0.40;52.40
38333;DHT22;25748;46.670;14.272;2023-02-28T01:23:44;-0.40;52.50
38333;DHT22;25748;46.670;14.272;2023-02-28T01:26:13;-0.40;52.50
38333;DHT22;25748;46.670;14.272;2023-02-28T01:28:39;-0.30;52.30
38333;DHT22;25748;46.670;14.272;2023-02-28T01:31:06;-0.30;52.30
38333;DHT22;25748;46.670;14.272;2023-02-28T01:33:32;-0.30;52.20
38333;DHT22;25748;46.670;14.272;2023-02-28T01:36:01;-0.30;52.10
38333;DHT22;25748;46.670;14.272;2023-02-28T01:38:27;-0.30;52.10
38333;DHT22;25748;46.670;14.272;2023-02-28T01:40:54;-0.30;52.10
38333;DHT22;25748;46.670;14.272;2023-02-28T01:43:31;-0.20;52.10
38333;DHT22;25748;46.670;14.272;2023-02-28T01:45:58;-0.30;52.00
38333;DHT22;25748;46.670;14.272;2023-02-28T01:48:36;-0.30;51.90
38333;DHT22;25748;46.670;14.272;2023-02-28T01:51:10;-0.30;51.90
38333;DHT22;25748;46.670;14.272;2023-02-28T01:53:41;-0.30;51.90
38333;DHT22;25748;46.670;14.272;2023-02-28T01:56:09;-0.30;52.00
38333;DHT22;25748;46.670;14.272;2023-02-28T01:58:37;-0.30;52.00
38333;DHT22;25748;46.670;14.272;2023-02-28T02:01:03;-0.30;52.00
38333;DHT22;25748;46.670;14.272;2023-02-28T02:03:30;-0.30;52.00
38333;DHT22;25748;46.670;14.272;2023-02-28T02:05:56;-0.30;52.10
38333;DHT22;25748;46.670;14.272;2023-02-28T02:08:25;-0.30;52.00
38333;DHT22;25748;46.670;14.272;2023-02-28T02:10:57;-0.30;52.00
38333;DHT22;25748;46.670;14.272;2023-02-28T02:16:54;-0.30;52.00
38333;DHT22;25748;46.670;14.272;2023-02-28T02:33:28;-0.30;51.80
38333;DHT22;25748;46.670;14.272;2023-02-28T02:41:51;-0.30;51.70
38333;DHT22;25748;46.670;14.272;2023-02-28T02:44:21;-0.30;51.80
38333;DHT22;25748;46.670;14.272;2023-02-28T02:46:51;-0.30;51.70
38333;DHT22;25748;46.670;14.272;2023-02-28T02:49:25;-0.30;51.70
38333;DHT22;25748;46.670;14.272;2023-02-28T02:51:53;-0.30;51.70
38333;DHT22;25748;46.670;14.272;2023-02-28T02:54:28;-0.30;51.70
38333;DHT22;25748;46.670;14.272;2023-02-28T02:56:58;-0.20;51.80
38333;DHT22;25748;46.670;14.272;2023-02-28T02:59:25;-0.20;51.80
38333;DHT22;25748;46.670;14.272;2023-02-28T03:01:59;-0.20;51.80
38333;DHT22;25748;46.670;14.272;2023-02-28T03:04:40;-0.20;51.80
38333;DHT22;25748;46.670;14.272;2023-02-28T03:07:07;-0.20;51.80
38333;DHT22;25748;46.670;14.272;2023-02-28T03:09:34;-0.20;51.70
38333;DHT22;25748;46.670;14.272;2023-02-28T03:12:01;-0.30;51.90
38333;DHT22;25748;46.670;14.272;2023-02-28T03:28:18;-0.20;51.70
38333;DHT22;25748;46.670;14.272;2023-02-28T03:30:52;-0.20;51.80
38333;DHT22;25748;46.670;14.272;2023-02-28T03:33:31;-0.20;51.80
38333;DHT22;25748;46.670;14.272;2023-02-28T03:36:18;-0.20;51.70
38333;DHT22;25748;46.670;14.272;2023-02-28T03:38:56;-0.20;51.70
38333;DHT22;25748;46.670;14.272;2023-02-28T03:41:31;-0.20;51.70
38333;DHT22;25748;46.670;14.272;2023-02-28T03:44:07;-0.20;51.70
38333;DHT22;25748;46.670;14.272;2023-02-28T03:46:38;-0.20;51.80
38333;DHT22;25748;46.670;14.272;2023-02-28T03:49:23;-0.20;51.80
38333;DHT22;25748;46.670;14.272;2023-02-28T03:51:50;-0.20;51.90
38333;DHT22;25748;46.670;14.272;2023-02-28T03:54:27;-0.20;51.90
38333;DHT22;25748;46.670;14.272;2023-02-28T03:57:04;-0.20;51.90
38333;DHT22;25748;46.670;14.272;2023-02-28T03:59:48;-0.20;51.90
38333;DHT22;25748;46.670;14.272;2023-02-28T04:02:17;-0.20;52.00
38333;DHT22;25748;46.670;14.272;2023-02-28T04:04:44;-0.20;51.90
38333;DHT22;25748;46.670;14.272;2023-02-28T04:07:13;-0.20;52.00
38333;DHT22;25748;46.670;14.272;2023-02-28T04:09:39;-0.20;52.00
38333;DHT22;25748;46.670;14.272;2023-02-28T04:12:05;-0.20;52.00
38333;DHT22;25748;46.670;14.272;2023-02-28T04:14:31;-0.20;52.00
38333;DHT22;25748;46.670;14.272;2023-02-28T04:16:57;-0.20;52.00
38333;DHT22;25748;46.670;14.272;2023-02-28T04:19:22;-0.20;52.10
38333;DHT22;25748;46.670;14.272;2023-02-28T04:21:53;-0.10;52.20
38333;DHT22;25748;46.670;14.272;2023-02-28T04:24:21;-0.20;52.10
38333;DHT22;25748;46.670;14.272;2023-02-28T04:26:52;-0.20;52.20
38333;DHT22;25748;46.670;14.272;2023-02-28T04:29:29;-0.20;52.20
38333;DHT22;25748;46.670;14.272;2023-02-28T04:31:56;-0.20;52.20
38333;DHT22;25748;46.670;14.272;2023-02-28T04:34:26;-0.10;52.20
38333;DHT22;25748;46.670;14.272;2023-02-28T04:36:53;-0.20;52.20
38333;DHT22;25748;46.670;14.272;2023-02-28T04:39:21;-0.20;52.20
38333;DHT22;25748;46.670;14.272;2023-02-28T04:41:47;-0.10;52.20
38333;DHT22;25748;46.670;14.272;2023-02-28T04:44:13;-0.10;52.20
38333;DHT22;25748;46.670;14.272;2023-02-28T04:46:39;-0.20;52.10
38333;DHT22;25748;46.670;14.272;2023-02-28T04:49:05;-0.20;52.00
38333;DHT22;25748;46.670;14.272;2023-02-28T04:51:31;-0.20;52.00
38333;DHT22;25748;46.670;14.272;2023-02-28T04:53:57;-0.20;51.90
38333;DHT22;25748;46.670;14.272;2023-02-28T04:56:23;-0.20;51.90
38333;DHT22;25748;46.670;14.272;2023-02-28T04:58:49;-0.20;51.90
38333;DHT22;25748;46.670;14.272;2023-02-28T05:03:44;-0.20;51.80
38333;DHT22;25748;46.670;14.272;2023-02-28T05:06:11;-0.20;51.80
38333;DHT22;25748;46.670;14.272;2023-02-28T05:08:37;-0.20;51.80
38333;DHT22;25748;46.670;14.272;2023-02-28T05:11:05;-0.20;51.60
38333;DHT22;25748;46.670;14.272;2023-02-28T05:13:31;-0.20;51.60
38333;DHT22;25748;46.670;14.272;2023-02-28T05:15:57;-0.20;51.60
38333;DHT22;25748;46.670;14.272;2023-02-28T05:18:23;-0.20;51.50
38333;DHT22;25748;46.670;14.272;2023-02-28T05:20:48;-0.20;51.60
38333;DHT22;25748;46.670;14.272;2023-02-28T05:23:14;-0.20;51.60
38333;DHT22;25748;46.670;14.272;2023-02-28T05:25:41;-0.20;51.60
38333;DHT22;25748;46.670;14.272;2023-02-28T05:28:07;-0.20;51.50
38333;DHT22;25748;46.670;14.272;2023-02-28T05:30:33;-0.20;51.60
38333;DHT22;25748;46.670;14.272;2023-02-28T05:32:59;-0.20;51.60
38333;DHT22;25748;46.670;14.272;2023-02-28T05:35:25;-0.20;51.60
38333;DHT22;25748;46.670;14.272;2023-02-28T05:37:51;-0.20;51.60
38333;DHT22;25748;46.670;14.272;2023-02-28T05:40:17;-0.20;51.70
38333;DHT22;25748;46.670;14.272;2023-02-28T05:42:43;-0.10;51.70
38333;DHT22;25748;46.670;14.272;2023-02-28T05:45:09;-0.20;51.80
38333;DHT22;25748;46.670;14.272;2023-02-28T05:47:35;-0.20;52.00
38333;DHT22;25748;46.670;14.272;2023-02-28T05:50:01;-0.20;52.00
38333;DHT22;25748;46.670;14.272;2023-02-28T05:52:28;-0.20;52.00
38333;DHT22;25748;46.670;14.272;2023-02-28T05:54:55;-0.20;52.10
38333;DHT22;25748;46.670;14.272;2023-02-28T05:57:21;-0.20;52.10
38333;DHT22;25748;46.670;14.272;2023-02-28T05:59:47;-0.20;52.10
38333;DHT22;25748;46.670;14.272;2023-02-28T06:02:14;-0.20;52.10
38333;DHT22;25748;46.670;14.272;2023-02-28T06:04:40;-0.20;52.20
38333;DHT22;25748;46.670;14.272;2023-02-28T06:07:06;-0.20;52.20
38333;DHT22;25748;46.670;14.272;2023-02-28T06:09:32;-0.20;52.20
38333;DHT22;25748;46.670;14.272;2023-02-28T06:11:59;-0.20;52.30
38333;DHT22;25748;46.670;14.272;2023-02-28T06:14:25;-0.20;52.30
38333;DHT22;25748;46.670;14.272;2023-02-28T06:16:51;-0.20;52.30
38333;DHT22;25748;46.670;14.272;2023-02-28T06:19:17;-0.20;52.30
38333;DHT22;25748;46.670;14.272;2023-02-28T06:21:43;-0.20;52.50
38333;DHT22;25748;46.670;14.272;2023-02-28T06:24:09;-0.20;52.60
38333;DHT22;25748;46.670;14.272;2023-02-28T06:26:35;-0.20;52.60
38333;DHT22;25748;46.670;14.272;2023-02-28T06:29:01;-0.20;52.70
38333;DHT22;25748;46.670;14.272;2023-02-28T06:31:27;-0.20;52.80
38333;DHT22;25748;46.670;14.272;2023-02-28T06:33:55;-0.20;52.80
38333;DHT22;25748;46.670;14.272;2023-02-28T06:36:21;-0.20;52.90
38333;DHT22;25748;46.670;14.272;2023-02-28T06:38:46;-0.10;52.90
38333;DHT22;25748;46.670;14.272;2023-02-28T06:41:17;-0.10;52.90
38333;DHT22;25748;46.670;14.272;2023-02-28T06:43:43;-0.10;53.00
38333;DHT22;25748;46.670;14.272;2023-02-28T06:46:12;-0.10;53.00
38333;DHT22;25748;46.670;14.272;2023-02-28T06:48:39;-0.10;53.00
38333;DHT22;25748;46.670;14.272;2023-02-28T06:51:09;0.00;52.90
38333;DHT22;25748;46.670;14.272;2023-02-28T06:53:35;0.00;52.90
38333;DHT22;25748;46.670;14.272;2023-02-28T06:56:05;0.00;52.80
38333;DHT22;25748;46.670;14.272;2023-02-28T06:58:31;0.00;52.80
38333;DHT22;25748;46.670;14.272;2023-02-28T07:00:57;0.00;52.70
38333;DHT22;25748;46.670;14.272;2023-02-28T07:03:23;0.00;52.40
38333;DHT22;25748;46.670;14.272;2023-02-28T07:05:49;0.00;52.20
38333;DHT22;25748;46.670;14.272;2023-02-28T07:08:15;0.00;52.10
38333;DHT22;25748;46.670;14.272;2023-02-28T07:10:41;0.00;51.90
38333;DHT22;25748;46.670;14.272;2023-02-28T07:13:08;0.10;51.90
38333;DHT22;25748;46.670;14.272;2023-02-28T07:15:37;0.10;51.90
38333;DHT22;25748;46.670;14.272;2023-02-28T07:18:03;0.10;52.00
38333;DHT22;25748;46.670;14.272;2023-02-28T07:20:29;0.10;52.10
38333;DHT22;25748;46.670;14.272;2023-02-28T07:22:55;0.20;52.10
38333;DHT22;25748;46.670;14.272;2023-02-28T07:25:26;0.10;52.00
38333;DHT22;25748;46.670;14.272;2023-02-28T07:27:52;0.20;52.00
38333;DHT22;25748;46.670;14.272;2023-02-28T07:30:18;0.20;52.10
38333;DHT22;25748;46.670;14.272;2023-02-28T07:32:44;0.20;52.00
38333;DHT22;25748;46.670;14.272;2023-02-28T07:35:10;0.20;52.10
38333;DHT22;25748;46.670;14.272;2023-02-28T07:37:35;0.30;52.10
38333;DHT22;25748;46.670;14.272;2023-02-28T07:40:05;0.30;52.00
38333;DHT22;25748;46.670;14.272;2023-02-28T07:42:34;0.30;51.80
38333;DHT22;25748;46.670;14.272;2023-02-28T07:45:00;0.40;51.70
38333;DHT22;25748;46.670;14.272;2023-02-28T07:47:26;0.40;51.60
38333;DHT22;25748;46.670;14.272;2023-02-28T07:49:51;0.40;51.60
38333;DHT22;25748;46.670;14.272;2023-02-28T07:52:18;0.40;51.50
38333;DHT22;25748;46.670;14.272;2023-02-28T07:54:43;0.40;51.40
38333;DHT22;25748;46.670;14.272;2023-02-28T07:57:09;0.50;51.30
38333;DHT22;25748;46.670;14.272;2023-02-28T07:59:34;0.50;51.30
38333;DHT22;25748;46.670;14.272;2023-02-28T08:02:00;0.50;51.10
38333;DHT22;25748;46.670;14.272;2023-02-28T08:04:26;0.50;50.90
38333;DHT22;25748;46.670;14.272;2023-02-28T08:06:52;0.50;51.10
38333;DHT22;25748;46.670;14.272;2023-02-28T08:09:19;0.50;51.10
38333;DHT22;25748;46.670;14.272;2023-02-28T08:11:44;0.50;50.70
38333;DHT22;25748;46.670;14.272;2023-02-28T08:14:10;0.50;50.80
38333;DHT22;25748;46.670;14.272;2023-02-28T08:16:36;0.60;50.90
38333;DHT22;25748;46.670;14.272;2023-02-28T08:19:02;0.60;50.60
38333;DHT22;25748;46.670;14.272;2023-02-28T08:21:27;0.70;50.60
38333;DHT22;25748;46.670;14.272;2023-02-28T08:23:53;0.70;50.50
38333;DHT22;25748;46.670;14.272;2023-02-28T08:26:20;0.70;50.50
38333;DHT22;25748;46.670;14.272;2023-02-28T08:28:46;0.70;50.40
38333;DHT22;25748;46.670;14.272;2023-02-28T08:31:14;0.70;50.40
38333;DHT22;25748;46.670;14.272;2023-02-28T08:33:41;0.80;50.30
38333;DHT22;25748;46.670;14.272;2023-02-28T08:36:08;0.70;50.30
38333;DHT22;25748;46.670;14.272;2023-02-28T08:38:35;0.80;50.20
38333;DHT22;25748;46.670;14.272;2023-02-28T08:41:02;0.80;50.00
38333;DHT22;25748;46.670;14.272;2023-02-28T08:43:28;0.80;50.00
38333;DHT22;25748;46.670;14.272;2023-02-28T08:45:55;0.80;49.80
38333;DHT22;25748;46.670;14.272;2023-02-28T08:48:25;0.90;50.00
38333;DHT22;25748;46.670;14.272;2023-02-28T08:51:02;0.90;50.00
38333;DHT22;25748;46.670;14.272;2023-02-28T08:53:28;0.90;49.70
38333;DHT22;25748;46.670;14.272;2023-02-28T08:55:58;1.00;49.40
38333;DHT22;25748;46.670;14.272;2023-02-28T08:58:25;0.90;49.40
38333;DHT22;25748;46.670;14.272;2023-02-28T09:00:51;0.90;49.50
38333;DHT22;25748;46.670;14.272;2023-02-28T09:03:17;0.90;49.30
38333;DHT22;25748;46.670;14.272;2023-02-28T09:05:55;1.00;49.20
38333;DHT22;25748;46.670;14.272;2023-02-28T09:08:22;0.90;49.20
38333;DHT22;25748;46.670;14.272;2023-02-28T09:10:48;1.00;49.40
38333;DHT22;25748;46.670;14.272;2023-02-28T09:13:13;1.00;49.50
38333;DHT22;25748;46.670;14.272;2023-02-28T09:15:39;1.00;49.30
38333;DHT22;25748;46.670;14.272;2023-02-28T09:18:05;1.00;49.50
38333;DHT22;25748;46.670;14.272;2023-02-28T09:20:30;1.00;49.50
38333;DHT22;25748;46.670;14.272;2023-02-28T09:22:56;1.00;49.60
38333;DHT22;25748;46.670;14.272;2023-02-28T09:25:22;1.10;49.60
38333;DHT22;25748;46.670;14.272;2023-02-28T09:27:47;1.10;49.30
38333;DHT22;25748;46.670;14.272;2023-02-28T09:30:14;1.10;49.10
38333;DHT22;25748;46.670;14.272;2023-02-28T09:32:40;1.20;49.00
38333;DHT22;25748;46.670;14.272;2023-02-28T09:35:05;1.20;49.00
38333;DHT22;25748;46.670;14.272;2023-02-28T09:37:31;1.20;49.00
38333;DHT22;25748;46.670;14.272;2023-02-28T09:39:57;1.30;49.00
38333;DHT22;25748;46.670;14.272;2023-02-28T09:42:41;1.30;49.10
38333;DHT22;25748;46.670;14.272;2023-02-28T09:45:24;1.30;49.10
38333;DHT22;25748;46.670;14.272;2023-02-28T09:47:54;1.40;49.10
38333;DHT22;25748;46.670;14.272;2023-02-28T09:50:23;1.50;49.10
38333;DHT22;25748;46.670;14.272;2023-02-28T09:52:54;1.50;48.90
38333;DHT22;25748;46.670;14.272;2023-02-28T09:55:33;1.60;48.70
38333;DHT22;25748;46.670;14.272;2023-02-28T09:58:01;1.60;48.40
38333;DHT22;25748;46.670;14.272;2023-02-28T10:00:39;1.60;48.40
38333;DHT22;25748;46.670;14.272;2023-02-28T10:06:28;1.60;48.40
38333;DHT22;25748;46.670;14.272;2023-02-28T10:09:02;1.50;48.00
38333;DHT22;25748;46.670;14.272;2023-02-28T10:11:32;1.60;48.10
38333;DHT22;25748;46.670;14.272;2023-02-28T10:14:15;1.60;47.80
38333;DHT22;25748;46.670;14.272;2023-02-28T10:16:54;1.60;48.30
38333;DHT22;25748;46.670;14.272;2023-02-28T10:29:43;1.40;48.10
38333;DHT22;25748;46.670;14.272;2023-02-28T10:32:13;1.50;48.40
38333;DHT22;25748;46.670;14.272;2023-02-28T10:34:39;1.50;48.20
38333;DHT22;25748;46.670;14.272;2023-02-28T10:37:05;1.60;48.30
38333;DHT22;25748;46.670;14.272;2023-02-28T10:42:00;1.80;48.20
38333;DHT22;25748;46.670;14.272;2023-02-28T10:44:25;1.90;48.40
38333;DHT22;25748;46.670;14.272;2023-02-28T10:46:51;2.00;48.50
38333;DHT22;25748;46.670;14.272;2023-02-28T10:49:21;2.10;48.10
38333;DHT22;25748;46.670;14.272;2023-02-28T10:51:51;2.10;47.70
38333;DHT22;25748;46.670;14.272;2023-02-28T10:54:31;2.10;47.50
38333;DHT22;25748;46.670;14.272;2023-02-28T10:59:35;2.10;47.20
38333;DHT22;25748;46.670;14.272;2023-02-28T11:02:00;2.20;47.20
38333;DHT22;25748;46.670;14.272;2023-02-28T11:07:16;2.10;47.20
38333;DHT22;25748;46.670;14.272;2023-02-28T11:09:46;1.90;46.90
38333;DHT22;25748;46.670;14.272;2023-02-28T11:12:37;1.90;47.30
38333;DHT22;25748;46.670;14.272;2023-02-28T11:15:14;1.90;47.50
38333;DHT22;25748;46.670;14.272;2023-02-28T11:17:44;2.00;47.50
38333;DHT22;25748;46.670;14.272;2023-02-28T11:20:20;2.10;47.90
38333;DHT22;25748;46.670;14.272;2023-02-28T11:22:50;2.10;47.30
38333;DHT22;25748;46.670;14.272;2023-02-28T11:25:23;2.00;47.30
38333;DHT22;25748;46.670;14.272;2023-02-28T11:27:52;2.20;47.50
38333;DHT22;25748;46.670;14.272;2023-02-28T11:30:39;2.20;47.30
38333;DHT22;25748;46.670;14.272;2023-02-28T11:35:51;2.30;47.40
38333;DHT22;25748;46.670;14.272;2023-02-28T11:38:17;2.40;47.30
38333;DHT22;25748;46.670;14.272;2023-02-28T11:56:51;2.90;46.90
38333;DHT22;25748;46.670;14.272;2023-02-28T12:03:12;2.80;46.40
38333;DHT22;25748;46.670;14.272;2023-02-28T12:05:43;2.70;46.40
38333;DHT22;25748;46.670;14.272;2023-02-28T12:10:54;3.10;46.70
38333;DHT22;25748;46.670;14.272;2023-02-28T12:13:57;3.10;46.50
38333;DHT22;25748;46.670;14.272;2023-02-28T12:16:37;3.30;46.30
38333;DHT22;25748;46.670;14.272;2023-02-28T12:19:22;3.20;45.70
38333;DHT22;25748;46.670;14.272;2023-02-28T12:21:57;3.40;46.10
38333;DHT22;25748;46.670;14.272;2023-02-28T12:27:09;3.50;45.50
38333;DHT22;25748;46.670;14.272;2023-02-28T12:29:48;3.60;45.70
38333;DHT22;25748;46.670;14.272;2023-02-28T12:32:35;3.60;45.40
38333;DHT22;25748;46.670;14.272;2023-02-28T12:35:44;3.30;45.30
38333;DHT22;25748;46.670;14.272;2023-02-28T12:38:14;3.10;45.60
38333;DHT22;25748;46.670;14.272;2023-02-28T12:41:04;3.10;45.30
38333;DHT22;25748;46.670;14.272;2023-02-28T12:43:42;3.10;45.90
38333;DHT22;25748;46.670;14.272;2023-02-28T12:46:17;3.30;45.90
38333;DHT22;25748;46.670;14.272;2023-02-28T12:48:50;3.30;45.90
38333;DHT22;25748;46.670;14.272;2023-02-28T12:51:19;3.60;46.00
38333;DHT22;25748;46.670;14.272;2023-02-28T12:59:49;3.90;45.20
38333;DHT22;25748;46.670;14.272;2023-02-28T13:10:45;4.20;44.80
38333;DHT22;25748;46.670;14.272;2023-02-28T13:13:20;4.10;44.40
38333;DHT22;25748;46.670;14.272;2023-02-28T13:16:03;4.00;44.20
38333;DHT22;25748;46.670;14.272;2023-02-28T13:20:54;4.20;44.70
38333;DHT22;25748;46.670;14.272;2023-02-28T13:26:06;4.40;45.20
38333;DHT22;25748;46.670;14.272;2023-02-28T13:31:18;4.40;44.50
38333;DHT22;25748;46.670;14.272;2023-02-28T13:38:52;4.50;44.20
38333;DHT22;25748;46.670;14.272;2023-02-28T13:46:25;4.40;44.10
38333;DHT22;25748;46.670;14.272;2023-02-28T13:48:51;4.20;44.00
38333;DHT22;25748;46.670;14.272;2023-02-28T13:51:40;4.20;44.40
38333;DHT22;25748;46.670;14.272;2023-02-28T13:54:30;4.20;44.50
38333;DHT22;25748;46.670;14.272;2023-02-28T13:57:04;4.10;44.80
38333;DHT22;25748;46.670;14.272;2023-02-28T14:02:22;4.00;44.90
38333;DHT22;25748;46.670;14.272;2023-02-28T14:05:00;3.70;44.80
38333;DHT22;25748;46.670;14.272;2023-02-28T14:07:30;3.60;45.00
38333;DHT22;25748;46.670;14.272;2023-02-28T14:10:05;3.70;45.30
38333;DHT22;25748;46.670;14.272;2023-02-28T14:12:58;3.70;45.30
38333;DHT22;25748;46.670;14.272;2023-02-28T14:15:38;3.70;45.20
38333;DHT22;25748;46.670;14.272;2023-02-28T14:18:27;3.80;45.30
38333;DHT22;25748;46.670;14.272;2023-02-28T14:20:58;3.70;45.00
38333;DHT22;25748;46.670;14.272;2023-02-28T14:26:37;3.80;45.50
38333;DHT22;25748;46.670;14.272;2023-02-28T14:34:35;3.80;45.40
38333;DHT22;25748;46.670;14.272;2023-02-28T14:37:02;3.80;45.30
38333;DHT22;25748;46.670;14.272;2023-02-28T14:39:30;3.90;45.30
38333;DHT22;25748;46.670;14.272;2023-02-28T14:41:57;3.90;45.10
38333;DHT22;25748;46.670;14.272;2023-02-28T14:44:28;3.90;45.30
38333;DHT22;25748;46.670;14.272;2023-02-28T14:47:01;3.80;45.30
38333;DHT22;25748;46.670;14.272;2023-02-28T14:49:36;3.80;45.30
38333;DHT22;25748;46.670;14.272;2023-02-28T14:52:09;3.80;45.20
38333;DHT22;25748;46.670;14.272;2023-02-28T14:54:38;3.80;45.30
38333;DHT22;25748;46.670;14.272;2023-02-28T14:57:05;3.70;45.40
38333;DHT22;25748;46.670;14.272;2023-02-28T14:59:33;3.60;45.60
38333;DHT22;25748;46.670;14.272;2023-02-28T15:02:20;3.60;45.70
38333;DHT22;25748;46.670;14.272;2023-02-28T15:05:00;3.60;45.80
38333;DHT22;25748;46.670;14.272;2023-02-28T15:07:26;3.60;45.70
38333;DHT22;25748;46.670;14.272;2023-02-28T15:10:30;3.60;45.50
38333;DHT22;25748;46.670;14.272;2023-02-28T15:12:57;3.60;45.70
38333;DHT22;25748;46.670;14.272;2023-02-28T15:15:40;3.60;45.60
38333;DHT22;25748;46.670;14.272;2023-02-28T15:18:10;3.50;45.70
38333;DHT22;25748;46.670;14.272;2023-02-28T15:20:41;3.50;45.80
38333;DHT22;25748;46.670;14.272;2023-02-28T15:23:08;3.40;45.80
38333;DHT22;25748;46.670;14.272;2023-02-28T15:25:34;3.50;45.80
38333;DHT22;25748;46.670;14.272;2023-02-28T15:28:00;3.40;45.70
38333;DHT22;25748;46.670;14.272;2023-02-28T15:30:29;3.40;45.70
38333;DHT22;25748;46.670;14.272;2023-02-28T15:33:18;3.40;45.90
38333;DHT22;25748;46.670;14.272;2023-02-28T15:35:44;3.40;46.00
38333;DHT22;25748;46.670;14.272;2023-02-28T15:38:26;3.40;45.90
38333;DHT22;25748;46.670;14.272;2023-02-28T15:40:58;3.30;45.90
38333;DHT22;25748;46.670;14.272;2023-02-28T15:43:30;3.30;45.80
38333;DHT22;25748;46.670;14.272;2023-02-28T15:46:02;3.20;45.90
38333;DHT22;25748;46.670;14.272;2023-02-28T15:51:16;3.20;46.10
38333;DHT22;25748;46.670;14.272;2023-02-28T15:56:27;3.20;46.20
38333;DHT22;25748;46.670;14.272;2023-02-28T15:59:01;3.20;46.30
38333;DHT22;25748;46.670;14.272;2023-02-28T16:01:29;3.20;46.40
38333;DHT22;25748;46.670;14.272;2023-02-28T16:03:59;3.20;46.40
38333;DHT22;25748;46.670;14.272;2023-02-28T16:09:03;3.10;46.40
38333;DHT22;25748;46.670;14.272;2023-02-28T16:11:28;3.10;46.40
38333;DHT22;25748;46.670;14.272;2023-02-28T16:13:56;3.00;46.30
38333;DHT22;25748;46.670;14.272;2023-02-28T16:16:24;3.00;46.40
38333;DHT22;25748;46.670;14.272;2023-02-28T16:18:51;3.00;46.40
38333;DHT22;25748;46.670;14.272;2023-02-28T16:21:17;3.00;46.50
38333;DHT22;25748;46.670;14.272;2023-02-28T16:23:43;3.00;46.50
38333;DHT22;25748;46.670;14.272;2023-02-28T16:26:16;3.00;46.70
38333;DHT22;25748;46.670;14.272;2023-02-28T16:28:43;3.00;46.50
38333;DHT22;25748;46.670;14.272;2023-02-28T16:31:10;2.90;46.60
38333;DHT22;25748;46.670;14.272;2023-02-28T16:33:42;2.90;46.70
38333;DHT22;25748;46.670;14.272;2023-02-28T16:36:16;2.90;46.70
38333;DHT22;25748;46.670;14.272;2023-02-28T16:38:42;2.80;46.60
38333;DHT22;25748;46.670;14.272;2023-02-28T16:41:12;2.80;46.60
38333;DHT22;25748;46.670;14.272;2023-02-28T16:43:44;2.80;46.70
38333;DHT22;25748;46.670;14.272;2023-02-28T16:46:11;2.80;46.80
38333;DHT22;25748;46.670;14.272;2023-02-28T16:48:37;2.80;47.00
38333;DHT22;25748;46.670;14.272;2023-02-28T16:51:03;2.70;47.10
38333;DHT22;25748;46.670;14.272;2023-02-28T16:53:31;2.70;47.20
38333;DHT22;25748;46.670;14.272;2023-02-28T16:55:57;2.70;47.30
38333;DHT22;25748;46.670;14.272;2023-02-28T16:58:23;2.70;47.20
38333;DHT22;25748;46.670;14.272;2023-02-28T17:00:51;2.70;47.20
38333;DHT22;25748;46.670;14.272;2023-02-28T17:03:26;2.70;47.40
38333;DHT22;25748;46.670;14.272;2023-02-28T17:05:52;2.60;47.30
38333;DHT22;25748;46.670;14.272;2023-02-28T17:08:18;2.60;47.30
38333;DHT22;25748;46.670;14.272;2023-02-28T17:10:44;2.60;47.50
38333;DHT22;25748;46.670;14.272;2023-02-28T17:13:10;2.60;47.50
38333;DHT22;25748;46.670;14.272;2023-02-28T17:15:36;2.60;47.60
38333;DHT22;25748;46.670;14.272;2023-02-28T17:18:03;2.50;47.70
38333;DHT22;25748;46.670;14.272;2023-02-28T17:20:30;2.50;47.90
38333;DHT22;25748;46.670;14.272;2023-02-28T17:22:56;2.40;48.00
38333;DHT22;25748;46.670;14.272;2023-02-28T17:25:22;2.50;48.20
38333;DHT22;25748;46.670;14.272;2023-02-28T17:27:48;2.40;48.50
38333;DHT22;25748;46.670;14.272;2023-02-28T17:30:19;2.40;49.00
38333;DHT22;25748;46.670;14.272;2023-02-28T17:32:45;2.40;49.20
38333;DHT22;25748;46.670;14.272;2023-02-28T17:35:12;2.40;49.50
38333;DHT22;25748;46.670;14.272;2023-02-28T17:37:38;2.40;49.50
38333;DHT22;25748;46.670;14.272;2023-02-28T17:40:05;2.40;49.50
38333;DHT22;25748;46.670;14.272;2023-02-28T17:42:31;2.40;49.60
38333;DHT22;25748;46.670;14.272;2023-02-28T17:44:56;2.30;49.70
38333;DHT22;25748;46.670;14.272;2023-02-28T17:47:22;2.30;49.80
38333;DHT22;25748;46.670;14.272;2023-02-28T17:49:48;2.30;49.90
38333;DHT22;25748;46.670;14.272;2023-02-28T17:52:13;2.30;49.80
38333;DHT22;25748;46.670;14.272;2023-02-28T17:54:39;2.30;49.70
38333;DHT22;25748;46.670;14.272;2023-02-28T17:57:05;2.20;49.70
38333;DHT22;25748;46.670;14.272;2023-02-28T17:59:32;2.20;49.90